Time;durP1;ratioP1;P1;durP2;ratioP2;P2;SDS_P1;SDS_P2;PMS_P1;PMS_P2;Temp;Humidity;BMP_temperature;BMP_pressure;BME280_temperature;BME280_humidity;BME280_pressure;Samples;Min_cycle;Max_cycle;Signal;HPM_P1;HPM_P2
2023/09/01 00:00:47;;;;;;;4.97;1.67;;;;;;;;;;5053097;28;20340;-49
2023/09/01 00:03:13;;;;;;;3.07;1.33;;;;;;;;;;5070841;28;20208;-52
2023/09/01 00:05:39;;;;;;;5.43;1.40;;;;;;;;;;5070158;28;20201;-51
2023/09/01 00:08:06;;;;;;;4.43;1.50;;;;;;;;;;5071097;28;20225;-55
2023/09/01 00:10:35;;;;;;;8.57;1.80;;;;;;;;;;5053383;28;20522;-48
2023/09/01 00:13:02;;;;;;;3.33;1.70;;;;;;;;;;5072451;28;20264;-52
2023/09/01 00:15:28;;;;;;;3.00;1.30;;;;;;;;;;5054790;28;20226;-52
2023/09/01 00:17:54;;;;;;;4.30;1.57;;;;;;;;;;5055593;28;20173;-49
2023/09/01 00:20:20;;;;;;;4.17;1.23;;;;;;;;;;5073046;28;20177;-53
2023/09/01 00:22:47;;;;;;;4.03;1.33;;;;;;;;;;5055765;28;20217;-49
2023/09/01 00:25:13;;;;;;;4.07;1.67;;;;;;;;;;5055028;28;20232;-50
2023/09/01 00:27:40;;;;;;;4.30;1.90;;;;;;;;;;5056027;28;20444;-53
2023/09/01 00:30:07;;;;;;;3.73;1.63;;;;;;;;;;5056488;28;20537;-53
2023/09/01 00:32:35;;;;;;;4.07;1.27;;;;;;;;;;5073545;28;20157;-49
2023/09/01 00:35:03;;;;;;;3.50;1.73;;;;;;;;;;5054259;28;20452;-52
2023/09/01 00:37:29;;;;;;;5.00;1.90;;;;;;;;;;5053927;28;20447;-49
2023/09/01 00:39:55;;;;;;;5.90;1.63;;;;;;;;;;5071841;28;20301;-50
2023/09/01 00:42:22;;;;;;;6.73;1.90;;;;;;;;;;5054365;28;20447;-49
2023/09/01 00:44:48;;;;;;;3.93;1.70;;;;;;;;;;5054094;28;20248;-48
2023/09/01 00:47:15;;;;;;;2.07;1.63;;;;;;;;;;5072570;28;20211;-49
2023/09/01 00:49:41;;;;;;;4.13;1.57;;;;;;;;;;5072822;28;20452;-52
2023/09/01 00:52:07;;;;;;;4.87;1.37;;;;;;;;;;5053841;28;20183;-48
2023/09/01 00:54:33;;;;;;;4.17;1.70;;;;;;;;;;5053896;28;20219;-48
2023/09/01 00:57:00;;;;;;;4.20;2.50;;;;;;;;;;5054126;28;20271;-50
2023/09/01 00:59:26;;;;;;;4.40;1.43;;;;;;;;;;5071680;28;20575;-51
2023/09/01 01:01:53;;;;;;;5.20;1.77;;;;;;;;;;5053174;28;20458;-53
2023/09/01 01:04:21;;;;;;;8.47;2.17;;;;;;;;;;5052733;28;20238;-52
2023/09/01 01:07:06;;;;;;;3.43;1.73;;;;;;;;;;5054474;28;20294;-51
2023/09/01 01:09:51;;;;;;;3.97;1.70;;;;;;;;;;5055086;28;20169;-49
2023/09/01 01:12:35;;;;;;;3.83;1.70;;;;;;;;;;5072113;28;20176;-49
2023/09/01 01:15:09;;;;;;;3.73;1.70;;;;;;;;;;5053505;28;20169;-50
2023/09/01 01:17:37;;;;;;;5.97;1.90;;;;;;;;;;5071005;28;20172;-49
2023/09/01 01:20:13;;;;;;;7.83;1.93;;;;;;;;;;5070089;28;20173;-50
2023/09/01 01:22:42;;;;;;;5.50;2.00;;;;;;;;;;5051075;28;20412;-49
2023/09/01 01:25:09;;;;;;;5.60;1.90;;;;;;;;;;5052943;28;20229;-52
2023/09/01 01:27:35;;;;;;;4.30;2.43;;;;;;;;;;5052770;28;20279;-50
2023/09/01 01:30:01;;;;;;;4.07;2.07;;;;;;;;;;5069618;28;20255;-50
2023/09/01 01:32:28;;;;;;;4.17;1.87;;;;;;;;;;5052104;28;20250;-49
2023/09/01 01:35:05;;;;;;;4.20;1.63;;;;;;;;;;5052149;28;20272;-51
2023/09/01 01:37:40;;;;;;;7.80;1.90;;;;;;;;;;5069899;28;20179;-50
2023/09/01 01:40:06;;;;;;;4.80;1.97;;;;;;;;;;5052393;28;20442;-51
2023/09/01 01:42:34;;;;;;;4.70;1.90;;;;;;;;;;5052201;28;20237;-53
2023/09/01 01:45:01;;;;;;;3.87;1.50;;;;;;;;;;5051836;28;20173;-50
2023/09/01 01:47:27;;;;;;;4.10;1.90;;;;;;;;;;5070057;28;20180;-49
2023/09/01 01:49:53;;;;;;;6.67;2.03;;;;;;;;;;5051724;28;20191;-52
2023/09/01 01:52:19;;;;;;;4.20;1.90;;;;;;;;;;5070236;28;20180;-53
2023/09/01 01:54:45;;;;;;;6.60;2.20;;;;;;;;;;5052350;28;20200;-51
2023/09/01 01:57:14;;;;;;;6.37;2.93;;;;;;;;;;5070248;28;20200;-48
2023/09/01 01:59:40;;;;;;;3.27;1.83;;;;;;;;;;5055137;28;20168;-50
2023/09/01 02:02:06;;;;;;;3.70;1.70;;;;;;;;;;5053554;28;20594;-50
2023/09/01 02:04:34;;;;;;;7.50;2.33;;;;;;;;;;5053159;28;20169;-51
2023/09/01 02:07:00;;;;;;;3.13;1.73;;;;;;;;;;5053435;28;20204;-50
2023/09/01 02:09:29;;;;;;;3.97;1.93;;;;;;;;;;5053651;28;20191;-50
2023/09/01 02:11:55;;;;;;;3.67;1.80;;;;;;;;;;5071463;28;20245;-53
2023/09/01 02:14:21;;;;;;;4.40;1.97;;;;;;;;;;5053508;28;20519;-49
2023/09/01 02:16:47;;;;;;;3.53;1.93;;;;;;;;;;5069333;28;20185;-51
2023/09/01 02:19:13;;;;;;;4.70;1.90;;;;;;;;;;5053687;28;20180;-49
2023/09/01 02:21:41;;;;;;;3.40;1.50;;;;;;;;;;5053948;28;20181;-49
2023/09/01 02:24:07;;;;;;;7.67;2.33;;;;;;;;;;5071276;28;20328;-54
2023/09/01 02:26:33;;;;;;;3.37;1.70;;;;;;;;;;5086908;28;20266;-49
2023/09/01 02:28:59;;;;;;;3.67;1.70;;;;;;;;;;5072087;28;20208;-55
2023/09/01 02:31:25;;;;;;;6.40;2.33;;;;;;;;;;5072474;28;20183;-52
2023/09/01 02:33:51;;;;;;;9.80;2.10;;;;;;;;;;5089166;28;20252;-51
2023/09/01 02:36:25;;;;;;;3.33;1.57;;;;;;;;;;5072036;28;20330;-53
2023/09/01 02:38:52;;;;;;;6.37;1.90;;;;;;;;;;5070929;28;20164;-51
2023/09/01 02:41:19;;;;;;;4.63;2.17;;;;;;;;;;5072496;28;20186;-48
2023/09/01 02:43:45;;;;;;;4.37;2.17;;;;;;;;;;5070892;28;20367;-51
2023/09/01 02:46:12;;;;;;;3.43;1.70;;;;;;;;;;5070308;28;20412;-50
2023/09/01 02:48:39;;;;;;;8.90;2.00;;;;;;;;;;5071847;28;20183;-53
2023/09/01 02:51:05;;;;;;;4.63;1.77;;;;;;;;;;5090673;28;20688;-48
2023/09/01 02:53:32;;;;;;;6.33;2.30;;;;;;;;;;5071159;28;20172;-52
2023/09/01 02:55:58;;;;;;;5.77;1.60;;;;;;;;;;5072495;28;20168;-48
2023/09/01 02:58:26;;;;;;;3.73;1.90;;;;;;;;;;5089801;28;20444;-49
2023/09/01 03:00:54;;;;;;;5.53;2.50;;;;;;;;;;5055199;28;20182;-51
2023/09/01 03:03:20;;;;;;;3.50;1.90;;;;;;;;;;5089137;28;20528;-49
2023/09/01 03:05:48;;;;;;;12.40;2.17;;;;;;;;;;5070955;28;20556;-50
2023/09/01 03:08:14;;;;;;;2.43;1.43;;;;;;;;;;5070607;28;20543;-48
2023/09/01 03:10:41;;;;;;;5.13;2.17;;;;;;;;;;5075544;28;20549;-50
2023/09/01 03:13:07;;;;;;;5.77;1.77;;;;;;;;;;5073200;28;20555;-52
2023/09/01 03:15:33;;;;;;;5.13;1.97;;;;;;;;;;5074844;28;20175;-49
2023/09/01 03:17:59;;;;;;;6.03;2.07;;;;;;;;;;5075191;28;20270;-50
2023/09/01 03:20:25;;;;;;;5.70;2.03;;;;;;;;;;5075568;28;20183;-52
2023/09/01 03:22:51;;;;;;;3.97;2.00;;;;;;;;;;5075299;28;20680;-51
2023/09/01 03:25:17;;;;;;;5.90;2.00;;;;;;;;;;5069266;28;20322;-48
2023/09/01 03:27:43;;;;;;;4.80;2.20;;;;;;;;;;5054533;28;20185;-48
2023/09/01 03:30:10;;;;;;;2.70;1.97;;;;;;;;;;5055248;28;20325;-51
2023/09/01 03:32:37;;;;;;;5.10;1.83;;;;;;;;;;5054001;28;20175;-54
2023/09/01 03:35:03;;;;;;;4.70;2.00;;;;;;;;;;5053466;28;20176;-50
2023/09/01 03:37:29;;;;;;;7.30;2.20;;;;;;;;;;5070678;28;20207;-49
2023/09/01 03:39:55;;;;;;;4.83;2.33;;;;;;;;;;5071445;28;20346;-54
2023/09/01 03:42:21;;;;;;;6.77;1.90;;;;;;;;;;5051720;28;20509;-50
2023/09/01 03:44:47;;;;;;;4.47;1.90;;;;;;;;;;5052570;28;20226;-55
2023/09/01 03:47:14;;;;;;;6.63;2.27;;;;;;;;;;5051542;28;20201;-51
2023/09/01 03:49:40;;;;;;;7.43;2.13;;;;;;;;;;5051518;28;20244;-48
2023/09/01 03:52:06;;;;;;;9.07;2.30;;;;;;;;;;5052731;28;20320;-52
2023/09/01 03:54:33;;;;;;;3.00;1.73;;;;;;;;;;5053334;28;20229;-52
2023/09/01 03:56:59;;;;;;;5.93;2.03;;;;;;;;;;5070236;28;20177;-51
2023/09/01 03:59:25;;;;;;;5.50;2.80;;;;;;;;;;5070650;28;20168;-49
2023/09/01 04:01:51;;;;;;;8.63;2.20;;;;;;;;;;5051821;28;20210;-54
2023/09/01 04:04:18;;;;;;;3.27;1.80;;;;;;;;;;5053432;28;20193;-52
2023/09/01 04:06:44;;;;;;;4.23;2.13;;;;;;;;;;5071944;28;20540;-51
2023/09/01 04:09:10;;;;;;;5.07;2.47;;;;;;;;;;5051766;28;20427;-50
2023/09/01 04:11:36;;;;;;;5.07;1.90;;;;;;;;;;5053137;28;20199;-51
2023/09/01 04:14:03;;;;;;;7.70;2.53;;;;;;;;;;5052432;28;20229;-50
2023/09/01 04:16:29;;;;;;;3.53;1.80;;;;;;;;;;5053030;28;20293;-49
2023/09/01 04:18:56;;;;;;;4.87;2.50;;;;;;;;;;5050378;28;20379;-49
2023/09/01 04:21:22;;;;;;;5.03;2.00;;;;;;;;;;5069226;28;20431;-48
2023/09/01 04:23:48;;;;;;;3.33;2.07;;;;;;;;;;5069289;28;20332;-49
2023/09/01 04:26:15;;;;;;;7.57;2.30;;;;;;;;;;5083567;28;20646;-48
2023/09/01 04:28:41;;;;;;;3.13;2.17;;;;;;;;;;5071427;28;20335;-53
2023/09/01 04:31:15;;;;;;;5.20;2.03;;;;;;;;;;5068777;28;20218;-49
2023/09/01 04:33:41;;;;;;;4.93;2.40;;;;;;;;;;5067663;28;20791;-50
2023/09/01 04:36:07;;;;;;;4.90;2.27;;;;;;;;;;5069660;28;20218;-51
2023/09/01 04:38:33;;;;;;;6.90;2.20;;;;;;;;;;5069364;28;20275;-51
2023/09/01 04:41:00;;;;;;;6.43;2.47;;;;;;;;;;5069153;28;20179;-52
2023/09/01 04:43:26;;;;;;;7.33;2.30;;;;;;;;;;5068498;28;20180;-48
2023/09/01 04:45:57;;;;;;;8.30;2.10;;;;;;;;;;5070060;28;20208;-51
2023/09/01 04:48:23;;;;;;;3.17;2.33;;;;;;;;;;5089246;28;20203;-50
2023/09/01 04:50:50;;;;;;;5.57;2.23;;;;;;;;;;5072793;28;20536;-49
2023/09/01 04:53:17;;;;;;;6.20;2.20;;;;;;;;;;5073234;28;20359;-51
2023/09/01 04:55:44;;;;;;;3.13;2.00;;;;;;;;;;5089862;28;20175;-50
2023/09/01 04:58:10;;;;;;;3.90;2.27;;;;;;;;;;5072889;28;20180;-52
2023/09/01 05:00:36;;;;;;;4.67;2.10;;;;;;;;;;5071268;28;20283;-50
2023/09/01 05:03:02;;;;;;;7.93;3.20;;;;;;;;;;5071161;28;20274;-49
2023/09/01 05:05:28;;;;;;;10.47;3.83;;;;;;;;;;5088936;28;20258;-48
2023/09/01 05:07:54;;;;;;;3.50;2.37;;;;;;;;;;5069842;28;20179;-50
2023/09/01 05:10:20;;;;;;;6.90;2.57;;;;;;;;;;5070186;28;20357;-51
2023/09/01 05:12:46;;;;;;;4.30;1.90;;;;;;;;;;5087274;28;20263;-52
2023/09/01 05:15:12;;;;;;;3.47;2.07;;;;;;;;;;5070193;28;20267;-48
2023/09/01 05:17:38;;;;;;;4.37;2.27;;;;;;;;;;5068848;28;20391;-53
2023/09/01 05:20:07;;;;;;;6.27;2.67;;;;;;;;;;5086480;28;20195;-49
2023/09/01 05:22:36;;;;;;;2.10;1.70;;;;;;;;;;5084576;28;20640;-52
2023/09/01 05:25:02;;;;;;;3.33;2.20;;;;;;;;;;5068890;28;20567;-52
2023/09/01 05:27:29;;;;;;;5.77;2.40;;;;;;;;;;5066742;28;20292;-51
2023/09/01 05:29:55;;;;;;;7.77;2.47;;;;;;;;;;5084224;28;20164;-50
2023/09/01 05:32:21;;;;;;;3.93;2.27;;;;;;;;;;5064204;28;20240;-51
2023/09/01 05:34:47;;;;;;;9.30;2.20;;;;;;;;;;5066036;28;20465;-55
2023/09/01 05:37:14;;;;;;;6.07;2.33;;;;;;;;;;5064890;28;20524;-48
2023/09/01 05:39:40;;;;;;;3.63;1.77;;;;;;;;;;5064256;28;20180;-48
2023/09/01 05:42:07;;;;;;;8.97;2.00;;;;;;;;;;5062879;28;20394;-50
2023/09/01 05:44:34;;;;;;;7.50;2.47;;;;;;;;;;5064416;28;20230;-49
2023/09/01 05:47:00;;;;;;;5.60;2.30;;;;;;;;;;5079472;28;20200;-51
2023/09/01 05:49:26;;;;;;;4.33;2.17;;;;;;;;;;5063330;28;20617;-54
2023/09/01 05:51:52;;;;;;;4.53;2.03;;;;;;;;;;5080259;28;20271;-53
2023/09/01 05:54:18;;;;;;;3.00;1.80;;;;;;;;;;5060168;28;20460;-50
2023/09/01 05:56:44;;;;;;;6.33;1.80;;;;;;;;;;5079876;28;20361;-50
2023/09/01 05:59:10;;;;;;;7.77;1.93;;;;;;;;;;5064514;28;20241;-53
2023/09/01 06:01:36;;;;;;;5.50;1.70;;;;;;;;;;5065108;28;20375;-52
2023/09/01 06:04:05;;;;;;;6.90;1.80;;;;;;;;;;5082994;28;20227;-52
2023/09/01 06:06:32;;;;;;;4.43;2.07;;;;;;;;;;5062389;28;20334;-50
2023/09/01 06:08:58;;;;;;;7.70;2.40;;;;;;;;;;5062716;28;20168;-52
2023/09/01 06:11:24;;;;;;;3.87;1.93;;;;;;;;;;5079258;28;20357;-48
2023/09/01 06:13:50;;;;;;;3.63;1.87;;;;;;;;;;5063562;28;20207;-53
2023/09/01 06:16:16;;;;;;;5.70;2.47;;;;;;;;;;5063469;28;20500;-49
2023/09/01 06:18:42;;;;;;;9.57;2.27;;;;;;;;;;5063808;28;20626;-51
2023/09/01 06:21:10;;;;;;;5.10;2.00;;;;;;;;;;5062327;28;20386;-49
2023/09/01 06:23:40;;;;;;;7.30;2.10;;;;;;;;;;5060461;28;20382;-51
2023/09/01 06:26:06;;;;;;;3.67;1.83;;;;;;;;;;5079295;28;20239;-53
2023/09/01 06:28:33;;;;;;;3.00;1.80;;;;;;;;;;5079718;28;20350;-50
2023/09/01 06:30:59;;;;;;;3.57;1.97;;;;;;;;;;5062137;28;20209;-54
2023/09/01 06:33:25;;;;;;;7.03;2.63;;;;;;;;;;5062298;28;20583;-55
2023/09/01 06:35:51;;;;;;;2.57;1.83;;;;;;;;;;5062720;28;20172;-52
2023/09/01 06:38:17;;;;;;;7.27;2.00;;;;;;;;;;5064888;28;20309;-51
2023/09/01 06:40:43;;;;;;;4.23;2.00;;;;;;;;;;5065610;28;20427;-53
2023/09/01 06:43:09;;;;;;;4.57;2.00;;;;;;;;;;5085290;28;20449;-50
2023/09/01 06:45:36;;;;;;;4.23;1.80;;;;;;;;;;5087583;28;20207;-52
2023/09/01 06:48:02;;;;;;;3.13;1.70;;;;;;;;;;5069602;28;20563;-49
2023/09/01 06:50:28;;;;;;;5.03;1.67;;;;;;;;;;5071480;28;20168;-50
2023/09/01 06:52:54;;;;;;;3.83;1.90;;;;;;;;;;5070120;28;20168;-48
2023/09/01 06:55:20;;;;;;;4.07;1.47;;;;;;;;;;5069413;28;20164;-50
2023/09/01 06:57:46;;;;;;;4.87;1.77;;;;;;;;;;5068056;28;20183;-48
2023/09/01 07:00:12;;;;;;;4.30;1.77;;;;;;;;;;5067627;28;20633;-49
2023/09/01 07:02:38;;;;;;;4.13;1.83;;;;;;;;;;5065991;28;20172;-50
2023/09/01 07:05:04;;;;;;;3.47;1.60;;;;;;;;;;5067691;28;20175;-51
2023/09/01 07:07:30;;;;;;;4.57;1.77;;;;;;;;;;5085361;28;20446;-54
2023/09/01 07:09:57;;;;;;;6.17;1.57;;;;;;;;;;5068046;28;20298;-52
2023/09/01 07:12:23;;;;;;;3.33;1.60;;;;;;;;;;5067995;28;20258;-52
2023/09/01 07:14:48;;;;;;;4.87;1.90;;;;;;;;;;5086582;28;20168;-49
2023/09/01 07:17:20;;;;;;;5.13;1.70;;;;;;;;;;5086768;28;20532;-54
2023/09/01 07:19:46;;;;;;;4.43;1.70;;;;;;;;;;5068975;28;20248;-53
2023/09/01 07:22:12;;;;;;;6.53;1.53;;;;;;;;;;5068385;28;20603;-51
2023/09/01 07:24:38;;;;;;;5.33;1.57;;;;;;;;;;5066752;28;20257;-53
2023/09/01 07:27:06;;;;;;;1.87;1.43;;;;;;;;;;5063940;28;20299;-51
2023/09/01 07:29:32;;;;;;;4.17;1.53;;;;;;;;;;5064455;28;20440;-52
2023/09/01 07:31:59;;;;;;;4.07;1.63;;;;;;;;;;5064120;28;20171;-52
2023/09/01 07:34:26;;;;;;;2.47;1.30;;;;;;;;;;5063862;28;20225;-52
2023/09/01 07:36:52;;;;;;;2.97;1.30;;;;;;;;;;5064051;28;20442;-51
2023/09/01 07:39:18;;;;;;;2.40;1.57;;;;;;;;;;5065491;28;20171;-53
2023/09/01 07:41:44;;;;;;;7.10;1.67;;;;;;;;;;5085672;28;20181;-50
2023/09/01 07:44:16;;;;;;;5.50;1.77;;;;;;;;;;5065844;28;20176;-49
2023/09/01 07:46:42;;;;;;;4.57;1.50;;;;;;;;;;5068104;28;20204;-51
2023/09/01 07:49:09;;;;;;;4.23;1.50;;;;;;;;;;5067096;28;20202;-53
2023/09/01 07:51:35;;;;;;;4.17;1.57;;;;;;;;;;5085255;28;20172;-51
2023/09/01 07:54:02;;;;;;;3.97;1.77;;;;;;;;;;5086286;28;20168;-54
2023/09/01 07:56:28;;;;;;;8.87;2.27;;;;;;;;;;5050966;28;20176;-53
2023/09/01 07:58:55;;;;;;;1.93;1.43;;;;;;;;;;5068053;28;20354;-48
2023/09/01 08:01:22;;;;;;;4.93;1.60;;;;;;;;;;5083392;28;20424;-51
2023/09/01 08:03:49;;;;;;;3.10;1.43;;;;;;;;;;5066638;28;20226;-51
2023/09/01 08:06:15;;;;;;;4.10;1.33;;;;;;;;;;5083154;28;20207;-51
2023/09/01 08:08:40;;;;;;;4.23;1.50;;;;;;;;;;5064480;28;20167;-51
2023/09/01 08:11:07;;;;;;;6.90;1.40;;;;;;;;;;5067155;28;20172;-51
2023/09/01 08:13:33;;;;;;;3.30;1.63;;;;;;;;;;5067239;28;20322;-49
2023/09/01 08:15:59;;;;;;;4.40;1.67;;;;;;;;;;5066533;28;20605;-48
2023/09/01 08:18:25;;;;;;;3.60;1.80;;;;;;;;;;5068095;28;20210;-52
2023/09/01 08:20:51;;;;;;;4.67;1.50;;;;;;;;;;5067086;28;20176;-48
2023/09/01 08:23:21;;;;;;;5.47;1.47;;;;;;;;;;5086242;28;20262;-50
2023/09/01 08:25:47;;;;;;;3.60;1.27;;;;;;;;;;5087943;28;20527;-53
2023/09/01 08:28:13;;;;;;;3.33;1.73;;;;;;;;;;5089232;28;20196;-54
2023/09/01 08:30:39;;;;;;;4.10;1.80;;;;;;;;;;5074129;28;20754;-49
2023/09/01 08:33:05;;;;;;;6.93;1.60;;;;;;;;;;5073501;28;20462;-53
2023/09/01 08:35:31;;;;;;;2.70;1.40;;;;;;;;;;5074647;28;20176;-51
2023/09/01 08:37:57;;;;;;;4.27;1.60;;;;;;;;;;5074358;28;20244;-53
2023/09/01 08:40:23;;;;;;;2.80;1.30;;;;;;;;;;5090776;28;20169;-54
2023/09/01 08:42:50;;;;;;;3.67;1.43;;;;;;;;;;5069276;28;20184;-51
2023/09/01 08:45:17;;;;;;;5.40;1.70;;;;;;;;;;5067425;28;20172;-52
2023/09/01 08:47:47;;;;;;;2.90;1.40;;;;;;;;;;5068499;28;20260;-50
2023/09/01 08:50:13;;;;;;;3.60;1.60;;;;;;;;;;5068637;28;20233;-51
2023/09/01 08:52:42;;;;;;;4.73;1.60;;;;;;;;;;5087180;28;20164;-53
2023/09/01 08:55:08;;;;;;;3.53;1.27;;;;;;;;;;5086613;28;20179;-53
2023/09/01 08:57:34;;;;;;;3.70;1.77;;;;;;;;;;5069253;28;20313;-51
2023/09/01 09:00:00;;;;;;;3.97;1.60;;;;;;;;;;5069539;28;20207;-52
2023/09/01 09:02:26;;;;;;;5.40;1.63;;;;;;;;;;5088273;28;20408;-53
2023/09/01 09:04:52;;;;;;;5.70;1.50;;;;;;;;;;5067171;28;20361;-49
2023/09/01 09:07:20;;;;;;;4.90;2.33;;;;;;;;;;5065660;28;20203;-50
2023/09/01 09:09:57;;;;;;;3.57;1.50;;;;;;;;;;5070029;28;20222;-49
2023/09/01 09:12:23;;;;;;;1.43;0.93;;;;;;;;;;5066956;28;20407;-50
2023/09/01 09:14:55;;;;;;;6.13;1.83;;;;;;;;;;5084572;28;20169;-55
2023/09/01 09:17:22;;;;;;;6.57;2.03;;;;;;;;;;5087832;28;20195;-48
2023/09/01 09:19:52;;;;;;;3.83;1.10;;;;;;;;;;5091006;28;20157;-52
2023/09/01 09:22:18;;;;;;;4.47;1.67;;;;;;;;;;5072048;28;20266;-51
2023/09/01 09:24:44;;;;;;;2.30;1.00;;;;;;;;;;5088915;28;20240;-51
2023/09/01 09:27:16;;;;;;;1.57;1.10;;;;;;;;;;5068683;28;20219;-52
2023/09/01 09:29:43;;;;;;;3.70;1.00;;;;;;;;;;5069674;28;20180;-51
2023/09/01 09:32:23;;;;;;;5.07;1.20;;;;;;;;;;5067165;28;20172;-51
2023/09/01 09:35:13;;;;;;;4.00;1.47;;;;;;;;;;5069780;28;20504;-53
2023/09/01 09:37:41;;;;;;;2.97;1.50;;;;;;;;;;5068016;28;20180;-51
2023/09/01 09:40:17;;;;;;;2.57;1.60;;;;;;;;;;5067977;28;20175;-51
2023/09/01 09:42:46;;;;;;;2.63;1.10;;;;;;;;;;5065890;28;20278;-49
2023/09/01 09:45:28;;;;;;;3.60;1.60;;;;;;;;;;5065367;28;20180;-52
2023/09/01 09:47:55;;;;;;;3.70;1.30;;;;;;;;;;5082311;28;20171;-52
2023/09/01 09:50:21;;;;;;;5.43;1.37;;;;;;;;;;5048542;28;20164;-50
2023/09/01 09:52:50;;;;;;;9.13;2.43;;;;;;;;;;5066703;28;20160;-50
2023/09/01 09:55:22;;;;;;;1.63;1.03;;;;;;;;;;5085650;28;20167;-50
2023/09/01 09:57:50;;;;;;;4.33;1.40;;;;;;;;;;5069464;28;20271;-50
2023/09/01 10:00:21;;;;;;;3.00;1.47;;;;;;;;;;5087074;28;20172;-49
2023/09/01 10:02:54;;;;;;;4.00;1.50;;;;;;;;;;5069795;28;20172;-52
2023/09/01 10:05:22;;;;;;;1.83;1.20;;;;;;;;;;5089198;28;20174;-53
2023/09/01 10:07:48;;;;;;;2.90;1.30;;;;;;;;;;5089083;28;20298;-55
2023/09/01 10:10:14;;;;;;;2.17;0.90;;;;;;;;;;5070774;28;20164;-48
2023/09/01 10:12:41;;;;;;;2.93;1.20;;;;;;;;;;5087929;28;20168;-48
2023/09/01 10:15:10;;;;;;;2.93;1.17;;;;;;;;;;5053153;28;20224;-55
2023/09/01 10:17:37;;;;;;;5.07;1.40;;;;;;;;;;5086765;28;20156;-51
2023/09/01 10:20:07;;;;;;;3.23;1.10;;;;;;;;;;5066972;28;20278;-50
2023/09/01 10:22:38;;;;;;;2.67;1.17;;;;;;;;;;5086736;28;20554;-48
2023/09/01 10:25:19;;;;;;;2.07;1.10;;;;;;;;;;5069163;28;20187;-52
2023/09/01 10:28:14;;;;;;;3.97;1.30;;;;;;;;;;5087932;28;20602;-50
2023/09/01 10:30:41;;;;;;;2.50;1.27;;;;;;;;;;5068421;28;20184;-48
2023/09/01 10:33:17;;;;;;;4.83;1.30;;;;;;;;;;5070361;28;20172;-52
2023/09/01 10:35:51;;;;;;;2.93;1.40;;;;;;;;;;5072029;28;20252;-50
2023/09/01 10:38:19;;;;;;;3.60;1.20;;;;;;;;;;5089412;28;20336;-53
2023/09/01 10:40:47;;;;;;;4.80;1.00;;;;;;;;;;5071966;28;20607;-53
2023/09/01 10:43:30;;;;;;;3.40;1.40;;;;;;;;;;5070100;28;20168;-48
2023/09/01 10:46:15;;;;;;;3.80;1.33;;;;;;;;;;5070035;28;20231;-49
2023/09/01 10:48:55;;;;;;;2.70;1.43;;;;;;;;;;5086914;28;20168;-54
2023/09/01 10:51:25;;;;;;;1.63;1.20;;;;;;;;;;5068543;28;20224;-52
2023/09/01 10:54:02;;;;;;;2.53;1.17;;;;;;;;;;5068962;28;20183;-52
2023/09/01 10:56:33;;;;;;;1.40;1.13;;;;;;;;;;5069840;28;20171;-48
2023/09/01 10:58:59;;;;;;;10.57;1.90;;;;;;;;;;5087650;28;20176;-51
2023/09/01 11:01:38;;;;;;;3.40;1.17;;;;;;;;;;5067795;28;20703;-48
2023/09/01 11:04:16;;;;;;;2.27;1.13;;;;;;;;;;5046053;28;20488;-49
2023/09/01 11:06:59;;;;;;;3.30;1.30;;;;;;;;;;5049088;28;20253;-51
2023/09/01 11:09:34;;;;;;;3.97;0.90;;;;;;;;;;5064598;28;20169;-50
2023/09/01 11:12:04;;;;;;;3.47;0.90;;;;;;;;;;5046039;28;20179;-50
2023/09/01 11:14:34;;;;;;;2.17;1.00;;;;;;;;;;5029247;28;20176;-51
2023/09/01 11:17:04;;;;;;;3.73;1.23;;;;;;;;;;5046688;28;20172;-50
2023/09/01 11:19:36;;;;;;;4.63;1.13;;;;;;;;;;5046325;28;20177;-51
2023/09/01 11:22:02;;;;;;;5.43;1.80;;;;;;;;;;5065997;28;20184;-52
2023/09/01 11:24:28;;;;;;;1.70;1.00;;;;;;;;;;5048285;28;20180;-52
2023/09/01 11:26:54;;;;;;;2.37;1.00;;;;;;;;;;5029456;28;20222;-50
2023/09/01 11:29:20;;;;;;;3.80;1.27;;;;;;;;;;5027165;28;20231;-51
2023/09/01 11:31:46;;;;;;;2.30;1.77;;;;;;;;;;5030419;28;20244;-50
2023/09/01 11:34:15;;;;;;;4.80;1.80;;;;;;;;;;5048178;28;20170;-51
2023/09/01 11:36:49;;;;;;;2.77;1.40;;;;;;;;;;5030111;28;20787;-52
2023/09/01 11:39:15;;;;;;;3.70;1.33;;;;;;;;;;5046007;28;20168;-50
2023/09/01 11:41:41;;;;;;;4.07;1.47;;;;;;;;;;5047541;28;20165;-52
2023/09/01 11:44:08;;;;;;;4.67;1.10;;;;;;;;;;5030206;28;20184;-51
2023/09/01 11:46:34;;;;;;;2.43;0.93;;;;;;;;;;5029403;28;20205;-51
2023/09/01 11:49:01;;;;;;;2.07;1.37;;;;;;;;;;5048402;28;20177;-55
2023/09/01 11:51:34;;;;;;;2.40;1.30;;;;;;;;;;5029176;28;20614;-50
2023/09/01 11:54:01;;;;;;;1.90;1.07;;;;;;;;;;5031049;28;20213;-49
2023/09/01 11:56:29;;;;;;;1.97;1.00;;;;;;;;;;5029298;28;20178;-53
2023/09/01 11:59:00;;;;;;;2.87;1.37;;;;;;;;;;5029830;28;20178;-49
2023/09/01 12:01:38;;;;;;;2.40;1.10;;;;;;;;;;5027482;28;20180;-52
2023/09/01 12:04:09;;;;;;;1.67;1.33;;;;;;;;;;5029350;28;20774;-53
2023/09/01 12:06:46;;;;;;;3.33;1.00;;;;;;;;;;5030135;28;20278;-53
2023/09/01 12:09:19;;;;;;;2.27;1.10;;;;;;;;;;5029117;28;20169;-49
2023/09/01 12:11:56;;;;;;;5.60;1.40;;;;;;;;;;5031333;28;20174;-51
2023/09/01 12:14:31;;;;;;;2.80;1.03;;;;;;;;;;5029385;28;20176;-52
2023/09/01 12:17:00;;;;;;;1.10;1.00;;;;;;;;;;5028555;28;20205;-52
2023/09/01 12:19:27;;;;;;;2.03;0.90;;;;;;;;;;5029396;28;20294;-52
2023/09/01 12:21:57;;;;;;;5.80;1.30;;;;;;;;;;5025817;28;20173;-52
2023/09/01 12:24:23;;;;;;;3.70;1.30;;;;;;;;;;5026285;28;20180;-53
2023/09/01 12:26:50;;;;;;;1.53;0.70;;;;;;;;;;5059092;28;20333;-52
2023/09/01 12:29:16;;;;;;;2.80;1.30;;;;;;;;;;5055251;28;20632;-50
2023/09/01 12:31:45;;;;;;;1.77;0.90;;;;;;;;;;5063313;28;20275;-53
2023/09/01 12:34:12;;;;;;;1.67;1.10;;;;;;;;;;5061883;28;20268;-48
2023/09/01 12:36:39;;;;;;;3.87;1.20;;;;;;;;;;5063743;28;20173;-52
2023/09/01 12:39:05;;;;;;;1.97;1.00;;;;;;;;;;5061921;28;20176;-52
2023/09/01 12:41:32;;;;;;;2.90;1.37;;;;;;;;;;5064199;28;20272;-49
2023/09/01 12:43:58;;;;;;;2.70;0.80;;;;;;;;;;5066230;28;20285;-49
2023/09/01 12:46:24;;;;;;;2.63;1.20;;;;;;;;;;5067148;28;20299;-54
2023/09/01 12:48:50;;;;;;;3.17;1.30;;;;;;;;;;5064492;28;20490;-55
2023/09/01 12:51:16;;;;;;;2.60;1.27;;;;;;;;;;5066068;28;20165;-51
2023/09/01 12:53:42;;;;;;;4.13;1.13;;;;;;;;;;5068229;28;20165;-50
2023/09/01 12:56:11;;;;;;;2.77;1.17;;;;;;;;;;5068933;28;20252;-51
2023/09/01 12:58:37;;;;;;;2.07;0.87;;;;;;;;;;5069613;28;20684;-50
2023/09/01 13:01:04;;;;;;;5.33;1.50;;;;;;;;;;5067153;28;20177;-51
2023/09/01 13:03:30;;;;;;;4.30;1.60;;;;;;;;;;5068324;28;20620;-52
2023/09/01 13:05:56;;;;;;;2.60;1.07;;;;;;;;;;5069586;28;20205;-54
2023/09/01 13:08:22;;;;;;;2.00;1.57;;;;;;;;;;5066733;28;20238;-54
2023/09/01 13:10:48;;;;;;;4.03;1.23;;;;;;;;;;5068877;28;20173;-50
2023/09/01 13:13:16;;;;;;;2.73;1.00;;;;;;;;;;5066886;28;20168;-49
2023/09/01 13:15:42;;;;;;;1.53;1.00;;;;;;;;;;5068107;28;20169;-53
2023/09/01 13:18:12;;;;;;;2.17;1.20;;;;;;;;;;5067819;28;20252;-50
2023/09/01 13:20:38;;;;;;;3.17;1.00;;;;;;;;;;5069247;28;20168;-48
2023/09/01 13:23:04;;;;;;;4.00;1.20;;;;;;;;;;5069119;28;20169;-53
2023/09/01 13:25:30;;;;;;;2.07;1.17;;;;;;;;;;5069718;28;20235;-53
2023/09/01 13:27:56;;;;;;;3.67;1.73;;;;;;;;;;5068068;28;20314;-50
2023/09/01 13:30:22;;;;;;;1.70;1.30;;;;;;;;;;5061130;28;20177;-49
2023/09/01 13:32:48;;;;;;;1.37;1.07;;;;;;;;;;5062104;28;20437;-48
2023/09/01 13:35:14;;;;;;;6.33;1.53;;;;;;;;;;5059893;28;20233;-50
2023/09/01 13:37:40;;;;;;;2.27;1.23;;;;;;;;;;5059852;28;20369;-53
2023/09/01 13:40:07;;;;;;;1.90;1.07;;;;;;;;;;5060792;28;20449;-52
2023/09/01 13:42:33;;;;;;;1.67;1.00;;;;;;;;;;5058475;28;20183;-50
2023/09/01 13:44:59;;;;;;;2.47;1.07;;;;;;;;;;5058802;28;20172;-51
2023/09/01 13:47:26;;;;;;;1.57;1.10;;;;;;;;;;5058304;28;20682;-50
2023/09/01 13:49:55;;;;;;;1.13;0.83;;;;;;;;;;5058542;28;20196;-52
2023/09/01 13:52:22;;;;;;;5.40;1.03;;;;;;;;;;5059516;28;20271;-52
2023/09/01 13:54:52;;;;;;;1.47;0.90;;;;;;;;;;5059742;28;20187;-50
2023/09/01 13:57:18;;;;;;;3.30;2.17;;;;;;;;;;5062208;28;20230;-48
2023/09/01 13:59:44;;;;;;;1.37;0.80;;;;;;;;;;5060249;28;20212;-48
2023/09/01 14:02:10;;;;;;;2.90;0.93;;;;;;;;;;5060126;28;20176;-49
2023/09/01 14:04:36;;;;;;;0.80;0.73;;;;;;;;;;5057849;28;20221;-51
2023/09/01 14:07:03;;;;;;;1.70;0.80;;;;;;;;;;5056789;28;20870;-52
2023/09/01 14:09:29;;;;;;;0.90;0.77;;;;;;;;;;5060887;28;20179;-54
2023/09/01 14:11:55;;;;;;;1.57;1.00;;;;;;;;;;5046226;28;20252;-52
2023/09/01 14:14:21;;;;;;;2.37;1.00;;;;;;;;;;5045732;28;20268;-49
2023/09/01 14:16:47;;;;;;;2.23;1.03;;;;;;;;;;5046772;28;20533;-49
2023/09/01 14:19:14;;;;;;;1.83;1.07;;;;;;;;;;5043571;28;20166;-51
2023/09/01 14:21:39;;;;;;;2.30;0.80;;;;;;;;;;5040324;28;20252;-54
2023/09/01 14:24:06;;;;;;;1.83;1.13;;;;;;;;;;5037971;28;20276;-50
2023/09/01 14:26:32;;;;;;;1.53;0.80;;;;;;;;;;5044056;28;20197;-50
2023/09/01 14:28:58;;;;;;;1.57;0.80;;;;;;;;;;5037810;28;20524;-52
2023/09/01 14:31:25;;;;;;;2.10;1.00;;;;;;;;;;5046726;28;20239;-48
2023/09/01 14:33:51;;;;;;;1.47;0.83;;;;;;;;;;5045218;28;20146;-51
2023/09/01 14:36:17;;;;;;;0.90;0.60;;;;;;;;;;5020663;28;20394;-48
2023/09/01 14:38:43;;;;;;;3.27;1.00;;;;;;;;;;5020631;28;20284;-49
2023/09/01 14:41:16;;;;;;;2.03;1.00;;;;;;;;;;5050661;28;20172;-51
2023/09/01 14:43:42;;;;;;;1.23;0.60;;;;;;;;;;5047996;28;20180;-48
2023/09/01 14:46:08;;;;;;;1.77;0.90;;;;;;;;;;5033693;28;20193;-50